createdAt,value
2022-11-29T00:01:39.286Z,1.72
2022-11-29T00:04:06.394Z,1.84
2022-11-29T00:06:34.785Z,2.03
2022-11-29T00:09:08.299Z,1.99
2022-11-29T00:11:56.204Z,2.01
2022-11-29T00:14:23.283Z,1.81
2022-11-29T00:16:55.303Z,1.89
2022-11-29T00:19:24.723Z,1.79
2022-11-29T00:21:54.077Z,1.70
2022-11-29T00:24:23.690Z,1.67
2022-11-29T00:26:55.171Z,1.62
2022-11-29T00:29:21.907Z,1.70
2022-11-29T00:31:48.667Z,1.60
2022-11-29T00:34:15.720Z,1.66
2022-11-29T00:36:42.442Z,1.55
2022-11-29T00:39:12.417Z,1.38
2022-11-29T00:41:42.225Z,1.28
2022-11-29T00:44:16.791Z,1.46
2022-11-29T00:46:51.878Z,1.51
2022-11-29T00:49:18.595Z,1.60
2022-11-29T00:51:45.906Z,1.53
2022-11-29T00:54:12.757Z,1.59
2022-11-29T00:56:39.715Z,1.57
2022-11-29T00:59:08.846Z,1.50
2022-11-29T01:01:37.846Z,1.40
2022-11-29T01:04:07.184Z,1.48
2022-11-29T01:06:36.414Z,1.54
2022-11-29T01:09:03.778Z,1.42
2022-11-29T01:11:33.237Z,1.40
2022-11-29T01:14:03.150Z,1.31
2022-11-29T01:16:32.422Z,1.48
2022-11-29T01:19:01.454Z,1.56
2022-11-29T01:21:28.587Z,1.56
2022-11-29T01:23:55.624Z,1.60
2022-11-29T01:26:25.426Z,1.74
2022-11-29T01:28:54.061Z,1.82
2022-11-29T01:31:32.193Z,1.86
2022-11-29T01:34:02.223Z,1.87
2022-11-29T01:36:29.564Z,1.86
2022-11-29T01:38:59.234Z,1.84
2022-11-29T01:41:28.250Z,1.58
2022-11-29T01:43:59.929Z,1.63
2022-11-29T01:46:32.074Z,1.81
2022-11-29T01:49:20.336Z,1.66
2022-11-29T01:52:04.074Z,1.72
2022-11-29T01:54:32.461Z,1.72
2022-11-29T01:57:02.616Z,1.76
2022-11-29T01:59:32.139Z,1.61
2022-11-29T02:02:12.512Z,1.63
2022-11-29T02:04:44.162Z,1.65
2022-11-29T02:07:13.947Z,1.65
2022-11-29T02:09:40.701Z,1.68
2022-11-29T02:12:33.435Z,1.56
2022-11-29T02:15:06.956Z,1.46
2022-11-29T02:18:12.793Z,1.40
2022-11-29T02:21:07.485Z,1.49
2022-11-29T02:23:52.494Z,1.38
2022-11-29T02:26:28.173Z,1.45
2022-11-29T02:29:32.037Z,1.51
2022-11-29T02:32:20.602Z,1.41
2022-11-29T02:35:00.714Z,1.33
2022-11-29T02:37:50.948Z,1.32
2022-11-29T02:40:57.218Z,1.38
2022-11-29T02:43:42.137Z,1.40
2022-11-29T02:46:11.818Z,1.51
2022-11-29T02:48:58.052Z,1.37
2022-11-29T02:51:50.877Z,1.52
2022-11-29T02:54:29.929Z,1.46
2022-11-29T02:57:02.182Z,1.44
2022-11-29T02:59:59.670Z,1.55
2022-11-29T03:02:43.422Z,1.51
2022-11-29T03:05:09.902Z,1.51
2022-11-29T03:07:51.978Z,1.34
2022-11-29T03:10:38.159Z,1.44
2022-11-29T03:13:20.271Z,1.49
2022-11-29T03:16:23.355Z,1.38
2022-11-29T03:18:56.247Z,1.35
2022-11-29T03:21:22.769Z,1.39
2022-11-29T03:24:02.162Z,1.20
2022-11-29T03:26:40.718Z,1.28
2022-11-29T03:29:16.198Z,1.17
2022-11-29T03:31:52.817Z,1.30
2022-11-29T03:34:52.993Z,1.35
2022-11-29T03:37:57.786Z,1.18
2022-11-29T03:40:48.869Z,1.24
2022-11-29T03:43:37.223Z,1.21
2022-11-29T03:46:12.543Z,0.87
2022-11-29T03:49:01.545Z,0.98
2022-11-29T03:51:54.669Z,1.02
2022-11-29T03:54:43.218Z,0.95
2022-11-29T03:57:14.069Z,1.08
2022-11-29T04:00:10.896Z,1.19
2022-11-29T04:02:37.422Z,0.98
2022-11-29T04:05:31.011Z,1.00
2022-11-29T04:08:07.313Z,1.04
2022-11-29T04:11:12.100Z,1.12
2022-11-29T04:13:53.479Z,1.10
2022-11-29T04:16:25.302Z,1.07
2022-11-29T04:19:21.061Z,1.05
2022-11-29T04:22:14.658Z,1.01
2022-11-29T04:25:02.377Z,1.04
2022-11-29T04:27:38.711Z,1.08
2022-11-29T04:30:13.939Z,1.12
2022-11-29T04:33:17.876Z,1.06
2022-11-29T04:36:28.916Z,1.02
2022-11-29T04:39:26.580Z,1.08
2022-11-29T04:42:11.766Z,1.07
2022-11-29T04:45:19.235Z,1.03
2022-11-29T04:48:04.085Z,0.93
2022-11-29T04:50:58.162Z,1.20
2022-11-29T04:53:24.546Z,1.11
2022-11-29T04:56:28.494Z,1.04
2022-11-29T04:59:10.050Z,1.13
2022-11-29T05:02:08.644Z,1.08
2022-11-29T05:04:55.457Z,1.00
2022-11-29T05:07:31.502Z,0.98
2022-11-29T05:10:03.657Z,1.08
2022-11-29T05:12:38.749Z,0.89
2022-11-29T05:15:35.177Z,0.81
2022-11-29T05:18:42.068Z,0.81
2022-11-29T05:21:20.527Z,0.70
2022-11-29T05:24:20.109Z,0.80
2022-11-29T05:27:15.294Z,0.89
2022-11-29T05:30:11.346Z,0.73
2022-11-29T05:32:56.943Z,0.81
2022-11-29T05:35:47.866Z,0.88
2022-11-29T05:38:40.500Z,0.80
2022-11-29T05:41:31.460Z,0.65
2022-11-29T05:44:15.935Z,0.64
2022-11-29T05:46:48.244Z,0.78
2022-11-29T05:49:33.516Z,0.79
2022-11-29T05:52:20.760Z,0.73
2022-11-29T05:55:17.264Z,0.75
2022-11-29T05:57:55.397Z,0.67
2022-11-29T06:00:26.919Z,0.87
2022-11-29T06:02:59.826Z,0.81
2022-11-29T06:05:40.364Z,0.89
2022-11-29T06:08:22.719Z,0.88
2022-11-29T06:11:00.964Z,0.81
2022-11-29T06:13:47.189Z,0.68
2022-11-29T06:16:32.806Z,0.69
2022-11-29T06:19:25.408Z,0.70
2022-11-29T06:22:39.902Z,0.72
2022-11-29T06:25:18.718Z,0.79
2022-11-29T06:28:02.238Z,0.93
2022-11-29T06:31:00.710Z,0.88
2022-11-29T06:33:35.498Z,0.83
2022-11-29T06:36:20.218Z,0.93
2022-11-29T06:38:49.580Z,0.82
2022-11-29T06:41:22.970Z,0.75
2022-11-29T06:43:53.323Z,1.06
2022-11-29T06:46:29.200Z,0.95
2022-11-29T06:49:02.523Z,0.91
2022-11-29T06:51:33.381Z,0.95
2022-11-29T06:54:31.871Z,0.96
2022-11-29T06:57:35.659Z,1.05
2022-11-29T07:00:12.673Z,0.93
2022-11-29T07:02:48.419Z,0.92
2022-11-29T07:05:29.426Z,0.89
2022-11-29T07:08:03.584Z,0.91
2022-11-29T07:10:36.174Z,0.96
2022-11-29T07:13:05.533Z,0.99
2022-11-29T07:15:39.370Z,0.99
2022-11-29T07:18:10.856Z,0.92
2022-11-29T07:20:59.074Z,1.05
2022-11-29T07:23:31.306Z,0.97
2022-11-29T07:26:14.980Z,1.08
2022-11-29T07:28:47.782Z,1.06
2022-11-29T07:31:25.143Z,1.08
2022-11-29T07:34:24.167Z,1.02
2022-11-29T07:37:02.139Z,0.95
2022-11-29T07:39:43.386Z,0.88
2022-11-29T07:42:26.494Z,1.10
2022-11-29T07:45:01.722Z,1.09
2022-11-29T07:47:32.576Z,0.96
2022-11-29T07:50:07.215Z,0.81
2022-11-29T07:52:33.798Z,0.98
2022-11-29T07:55:02.607Z,1.10
2022-11-29T07:57:29.150Z,1.16
2022-11-29T07:59:57.920Z,1.08
2022-11-29T08:02:31.815Z,1.07
2022-11-29T08:04:58.640Z,1.13
2022-11-29T08:07:27.832Z,1.06
2022-11-29T08:09:54.365Z,1.05
2022-11-29T08:12:23.621Z,1.08
2022-11-29T08:14:52.508Z,1.18
2022-11-29T08:17:19.110Z,1.27
2022-11-29T08:19:45.671Z,1.04
2022-11-29T08:22:14.786Z,1.09
2022-11-29T08:24:41.388Z,1.24
2022-11-29T08:27:07.973Z,1.29
2022-11-29T08:29:34.583Z,1.23
2022-11-29T08:32:06.356Z,1.24
2022-11-29T08:34:32.925Z,1.12
2022-11-29T08:37:01.799Z,1.28
2022-11-29T08:39:28.410Z,1.36
2022-11-29T08:41:55.040Z,1.25
2022-11-29T08:44:21.867Z,1.19
2022-11-29T08:47:07.160Z,1.33
2022-11-29T08:49:33.765Z,0.95
2022-11-29T08:52:18.992Z,1.09
2022-11-29T08:54:48.144Z,1.16
2022-11-29T08:57:39.309Z,1.35
2022-11-29T09:00:01.259Z,1.20
2022-11-29T09:02:27.858Z,1.32
2022-11-29T09:04:56.582Z,1.24
2022-11-29T09:07:23.353Z,1.23
2022-11-29T09:09:54.825Z,1.36
2022-11-29T09:12:23.865Z,1.55
2022-11-29T09:14:53.012Z,1.57
2022-11-29T09:17:19.521Z,1.53
2022-11-29T09:19:49.139Z,1.48
2022-11-29T09:22:18.334Z,1.45
2022-11-29T09:24:47.680Z,1.56
2022-11-29T09:27:16.556Z,1.39
2022-11-29T09:29:43.088Z,1.55
2022-11-29T09:32:09.856Z,1.91
2022-11-29T09:34:36.891Z,1.58
2022-11-29T09:37:05.831Z,1.66
2022-11-29T09:39:34.628Z,1.52
2022-11-29T09:42:12.548Z,1.61
2022-11-29T09:44:48.372Z,1.67
2022-11-29T09:47:17.705Z,1.59
2022-11-29T09:50:08.832Z,1.69
2022-11-29T09:52:59.104Z,1.78
2022-11-29T09:55:47.748Z,1.54
2022-11-29T09:58:20.856Z,1.61
2022-11-29T10:01:05.355Z,1.52
2022-11-29T10:03:38.595Z,1.66
2022-11-29T10:06:24.433Z,1.61
2022-11-29T10:09:06.178Z,1.75
2022-11-29T10:12:09.922Z,1.76
2022-11-29T10:14:46.127Z,1.47
2022-11-29T10:17:21.004Z,1.47
2022-11-29T10:19:52.992Z,1.43
2022-11-29T10:22:38.295Z,1.44
2022-11-29T10:25:10.418Z,1.44
2022-11-29T10:27:40.311Z,1.41
2022-11-29T10:30:16.015Z,1.54
2022-11-29T10:32:48.533Z,1.62
2022-11-29T10:35:19.443Z,1.61
2022-11-29T10:38:22.698Z,1.48
2022-11-29T10:40:41.893Z,1.70
2022-11-29T10:43:09.100Z,1.79
2022-11-29T10:45:40.502Z,1.86
2022-11-29T10:48:11.953Z,1.93
2022-11-29T10:50:42.777Z,1.72
2022-11-29T10:53:31.543Z,1.76
2022-11-29T10:56:19.064Z,1.82
2022-11-29T10:59:03.230Z,1.74
2022-11-29T11:01:37.459Z,1.51
2022-11-29T11:04:10.911Z,1.44
2022-11-29T11:06:55.779Z,1.65
2022-11-29T11:09:42.520Z,1.48
2022-11-29T11:12:15.031Z,1.72
2022-11-29T11:14:45.751Z,1.85
2022-11-29T11:17:32.869Z,2.03
2022-11-29T11:20:08.465Z,1.86
2022-11-29T11:22:39.299Z,1.97
2022-11-29T11:25:27.792Z,1.84
2022-11-29T11:27:54.518Z,1.93
2022-11-29T11:30:27.567Z,2.02
2022-11-29T11:33:24.473Z,2.05
2022-11-29T11:36:09.854Z,2.12
2022-11-29T11:38:46.994Z,1.80
2022-11-29T11:41:48.725Z,1.66
2022-11-29T11:44:49.692Z,1.83
2022-11-29T11:47:18.519Z,2.13
2022-11-29T11:49:54.613Z,2.29
2022-11-29T11:52:27.708Z,2.00
2022-11-29T11:54:57.987Z,2.21
2022-11-29T11:57:28.471Z,2.38
2022-11-29T12:00:06.486Z,2.50
2022-11-29T12:02:41.076Z,2.61
2022-11-29T12:05:18.314Z,2.00
2022-11-29T12:08:08.972Z,2.19
2022-11-29T12:10:42.470Z,2.32
2022-11-29T12:13:20.876Z,2.33
2022-11-29T12:15:51.272Z,2.40
2022-11-29T12:18:38.082Z,2.50
2022-11-29T12:21:15.078Z,2.43
2022-11-29T12:24:00.329Z,2.59
2022-11-29T12:26:56.558Z,2.21
2022-11-29T12:29:27.642Z,2.49
2022-11-29T12:32:33.258Z,2.57
2022-11-29T12:35:21.098Z,2.27
2022-11-29T12:37:50.644Z,2.08
2022-11-29T12:40:33.525Z,2.07
2022-11-29T12:43:15.403Z,2.36
2022-11-29T12:45:56.007Z,2.53
2022-11-29T12:48:41.427Z,2.72
2022-11-29T12:51:26.289Z,2.67
2022-11-29T12:54:12.705Z,2.82
2022-11-29T12:56:54.389Z,2.88
2022-11-29T12:59:39.973Z,2.83
2022-11-29T13:02:21.521Z,2.95
2022-11-29T13:05:22.573Z,2.75
2022-11-29T13:08:00.501Z,2.68
2022-11-29T13:11:06.164Z,2.62
2022-11-29T13:13:44.096Z,2.66
2022-11-29T13:16:48.227Z,2.64
2022-11-29T13:19:37.824Z,2.68
2022-11-29T13:22:18.885Z,2.71
2022-11-29T13:25:01.343Z,2.59
2022-11-29T13:27:40.148Z,2.80
2022-11-29T13:30:09.503Z,2.83
2022-11-29T13:32:36.381Z,2.59
2022-11-29T13:35:30.868Z,2.64
2022-11-29T13:38:04.072Z,2.36
2022-11-29T13:40:56.659Z,2.68
2022-11-29T13:43:49.208Z,2.77
2022-11-29T13:47:02.544Z,2.77
2022-11-29T13:50:26.289Z,2.61
2022-11-29T13:53:19.286Z,2.73
2022-11-29T13:56:06.569Z,2.67
2022-11-29T13:58:37.557Z,2.81
2022-11-29T14:01:12.956Z,2.91
2022-11-29T14:04:00.715Z,2.97
2022-11-29T14:06:36.474Z,2.95
2022-11-29T14:09:20.767Z,2.76
2022-11-29T14:11:52.778Z,2.68
2022-11-29T14:14:24.624Z,2.58
2022-11-29T14:16:55.869Z,2.41
2022-11-29T14:19:34.910Z,2.52
2022-11-29T14:22:09.772Z,2.67
2022-11-29T14:24:38.713Z,2.74
2022-11-29T14:27:16.771Z,3.01
2022-11-29T14:29:58.771Z,2.87
2022-11-29T14:32:59.696Z,2.78
2022-11-29T14:35:37.718Z,2.89
2022-11-29T14:38:36.481Z,2.87
2022-11-29T14:41:14.035Z,2.85
2022-11-29T14:43:43.420Z,2.53
2022-11-29T14:46:16.270Z,2.48
2022-11-29T14:48:55.236Z,2.67
2022-11-29T14:51:24.390Z,2.66
2022-11-29T14:54:22.120Z,2.47
2022-11-29T14:56:51.122Z,2.65
2022-11-29T14:59:45.958Z,2.38
2022-11-29T15:02:21.840Z,2.46
2022-11-29T15:04:52.161Z,2.34
2022-11-29T15:07:25.520Z,2.54
2022-11-29T15:10:00.515Z,2.67
2022-11-29T15:12:38.243Z,2.41
2022-11-29T15:15:21.730Z,2.48
2022-11-29T15:17:59.260Z,2.67
2022-11-29T15:20:55.640Z,2.55
2022-11-29T15:23:22.192Z,2.55
2022-11-29T15:25:51.676Z,2.60
2022-11-29T15:28:25.175Z,2.13
2022-11-29T15:31:09.310Z,2.14
2022-11-29T15:33:41.193Z,2.44
2022-11-29T15:36:22.153Z,2.25
2022-11-29T15:38:49.900Z,2.44
2022-11-29T15:41:34.722Z,2.19
2022-11-29T15:44:06.764Z,2.37
2022-11-29T15:46:37.589Z,2.49
2022-11-29T15:49:28.417Z,2.34
2022-11-29T15:52:05.696Z,2.36
2022-11-29T15:54:34.854Z,2.33
2022-11-29T15:57:16.758Z,2.54
2022-11-29T15:59:51.141Z,2.43
2022-11-29T16:02:19.883Z,2.46
2022-11-29T16:04:51.422Z,2.40
2022-11-29T16:07:21.957Z,2.42
2022-11-29T16:09:57.653Z,2.39
2022-11-29T16:12:24.782Z,2.39
2022-11-29T16:14:56.505Z,2.47
2022-11-29T16:17:29.733Z,2.42
2022-11-29T16:20:23.508Z,2.38
2022-11-29T16:23:16.898Z,2.42
2022-11-29T16:25:56.218Z,2.34
2022-11-29T16:28:25.470Z,2.58
2022-11-29T16:30:54.957Z,2.53
2022-11-29T16:33:24.426Z,2.47
2022-11-29T16:35:51.783Z,2.52
2022-11-29T16:38:21.935Z,2.55
2022-11-29T16:41:20.101Z,2.49
2022-11-29T16:43:54.239Z,2.57
2022-11-29T16:46:20.785Z,2.61
2022-11-29T16:48:51.591Z,2.65
2022-11-29T16:51:27.089Z,2.54
2022-11-29T16:53:57.603Z,2.80
2022-11-29T16:56:29.431Z,2.69
2022-11-29T16:59:20.710Z,2.58
2022-11-29T17:01:51.344Z,2.42
2022-11-29T17:04:23.751Z,2.50
2022-11-29T17:06:52.994Z,2.46
2022-11-29T17:09:23.502Z,2.51
2022-11-29T17:11:50.236Z,2.62
2022-11-29T17:14:19.191Z,2.65
2022-11-29T17:16:52.044Z,2.81
2022-11-29T17:19:23.821Z,2.88
2022-11-29T17:21:54.051Z,2.95
2022-11-29T17:24:24.827Z,2.85
2022-11-29T17:26:51.373Z,2.82
2022-11-29T17:29:20.755Z,2.83
2022-11-29T17:31:47.815Z,2.77
2022-11-29T17:34:17.050Z,2.69
2022-11-29T17:36:46.923Z,2.79
2022-11-29T17:39:20.009Z,2.85
2022-11-29T17:41:46.668Z,2.82
2022-11-29T17:44:18.172Z,2.90
2022-11-29T17:46:45.007Z,2.78
2022-11-29T17:49:18.682Z,2.75
2022-11-29T17:51:53.461Z,2.87
2022-11-29T17:54:21.692Z,2.78
2022-11-29T17:56:48.487Z,2.79
2022-11-29T17:59:21.141Z,2.79
2022-11-29T18:01:52.915Z,2.69
2022-11-29T18:04:22.157Z,2.71
2022-11-29T18:06:53.719Z,2.67
2022-11-29T18:09:20.297Z,2.72
2022-11-29T18:11:50.937Z,2.81
2022-11-29T18:14:23.730Z,2.80
2022-11-29T18:16:51.523Z,2.71
2022-11-29T18:19:22.596Z,2.88
2022-11-29T18:21:50.344Z,2.91
2022-11-29T18:24:17.365Z,2.81
2022-11-29T18:26:46.521Z,2.90
2022-11-29T18:29:13.451Z,2.86
2022-11-29T18:31:42.672Z,2.90
2022-11-29T18:34:11.035Z,3.02
2022-11-29T18:36:44.407Z,3.01
2022-11-29T18:39:15.737Z,3.03
2022-11-29T18:41:44.926Z,2.98
2022-11-29T18:44:14.415Z,3.07
2022-11-29T18:46:45.731Z,3.08
2022-11-29T18:49:15.402Z,3.21
2022-11-29T18:51:48.060Z,3.16
2022-11-29T18:54:18.336Z,3.16
2022-11-29T18:56:46.105Z,3.05
2022-11-29T18:59:16.801Z,3.08
2022-11-29T19:01:48.256Z,3.03
2022-11-29T19:04:19.283Z,2.93
2022-11-29T19:06:49.458Z,2.81
2022-11-29T19:09:21.785Z,2.87
2022-11-29T19:11:51.220Z,2.86
2022-11-29T19:14:21.495Z,2.93
2022-11-29T19:16:49.401Z,2.87
2022-11-29T19:19:21.360Z,2.90
2022-11-29T19:21:48.371Z,2.80
2022-11-29T19:24:17.643Z,2.81
2022-11-29T19:26:46.410Z,2.79
2022-11-29T19:29:14.204Z,2.85
2022-11-29T19:31:41.900Z,2.89
2022-11-29T19:34:11.554Z,2.85
2022-11-29T19:36:43.042Z,2.95
2022-11-29T19:39:12.223Z,2.89
2022-11-29T19:41:39.059Z,2.85
2022-11-29T19:44:07.798Z,2.95
2022-11-29T19:46:38.992Z,2.77
2022-11-29T19:49:09.889Z,2.87
2022-11-29T19:51:37.491Z,2.93
2022-11-29T19:54:07.269Z,2.91
2022-11-29T19:56:42.321Z,2.78
2022-11-29T19:59:11.378Z,2.90
2022-11-29T20:01:41.541Z,2.86
2022-11-29T20:04:10.645Z,2.87
2022-11-29T20:06:37.368Z,2.67
2022-11-29T20:09:04.128Z,2.86
2022-11-29T20:11:30.770Z,2.99
2022-11-29T20:14:02.208Z,2.88
2022-11-29T20:16:31.708Z,3.01
2022-11-29T20:19:02.110Z,3.07
2022-11-29T20:21:32.962Z,2.90
2022-11-29T20:24:05.484Z,2.55
2022-11-29T20:26:34.359Z,2.77
2022-11-29T20:29:03.763Z,2.66
2022-11-29T20:31:31.665Z,2.64
2022-11-29T20:33:58.747Z,2.72
2022-11-29T20:36:38.221Z,2.91
2022-11-29T20:39:36.931Z,2.98
2022-11-29T20:42:34.388Z,2.89
2022-11-29T20:45:02.666Z,2.82
2022-11-29T20:47:44.535Z,3.07
2022-11-29T20:50:23.119Z,3.10
2022-11-29T20:52:57.024Z,3.04
2022-11-29T20:55:23.789Z,2.98
2022-11-29T20:57:52.626Z,3.03
2022-11-29T21:00:19.871Z,3.14
2022-11-29T21:02:48.868Z,3.17
2022-11-29T21:05:16.845Z,3.12
2022-11-29T21:07:44.024Z,3.06
2022-11-29T21:10:11.126Z,3.13
2022-11-29T21:12:40.903Z,3.01
2022-11-29T21:15:11.061Z,2.95
2022-11-29T21:17:38.065Z,2.91
2022-11-29T21:20:05.743Z,2.81
2022-11-29T21:22:38.439Z,3.14
2022-11-29T21:25:40.074Z,3.18
2022-11-29T21:28:14.200Z,3.21
2022-11-29T21:30:44.124Z,3.21
2022-11-29T21:33:13.531Z,3.24
2022-11-29T21:35:40.266Z,3.30
2022-11-29T21:38:13.450Z,3.30
2022-11-29T21:40:40.157Z,3.20
2022-11-29T21:43:09.831Z,3.20
2022-11-29T21:45:39.431Z,3.28
2022-11-29T21:48:38.507Z,3.29
2022-11-29T21:51:09.233Z,3.34
2022-11-29T21:53:39.168Z,3.15
2022-11-29T21:56:10.483Z,3.09
2022-11-29T21:58:40.410Z,3.21
2022-11-29T22:01:10.486Z,3.38
2022-11-29T22:03:37.160Z,3.46
2022-11-29T22:06:09.635Z,3.48
2022-11-29T22:08:43.520Z,3.46
2022-11-29T22:11:12.606Z,3.34
2022-11-29T22:13:59.483Z,3.44
2022-11-29T22:16:26.261Z,3.44
2022-11-29T22:18:55.531Z,3.46
2022-11-29T22:21:22.438Z,3.46
2022-11-29T22:23:49.280Z,3.48
2022-11-29T22:26:16.043Z,3.62
2022-11-29T22:28:47.448Z,3.50
2022-11-29T22:31:16.488Z,3.27
2022-11-29T22:33:43.158Z,3.49
2022-11-29T22:36:14.215Z,3.48
2022-11-29T22:38:45.772Z,3.56
2022-11-29T22:41:18.678Z,3.47
2022-11-29T22:43:48.510Z,3.32
2022-11-29T22:46:23.969Z,3.64
2022-11-29T22:49:00.874Z,3.68
2022-11-29T22:51:29.021Z,3.65
2022-11-29T22:53:57.730Z,3.66
2022-11-29T22:56:27.213Z,3.46
2022-11-29T22:58:53.749Z,3.20
2022-11-29T23:01:27.669Z,3.35
2022-11-29T23:03:57.069Z,3.53
2022-11-29T23:06:28.527Z,3.34
2022-11-29T23:09:00.176Z,3.38
2022-11-29T23:11:30.574Z,3.38
2022-11-29T23:13:59.699Z,3.31
2022-11-29T23:16:29.287Z,3.30
2022-11-29T23:19:00.287Z,3.57
2022-11-29T23:21:35.965Z,3.43
2022-11-29T23:24:05.287Z,3.24
2022-11-29T23:26:40.203Z,3.55
2022-11-29T23:29:09.287Z,3.56
2022-11-29T23:31:39.214Z,3.57
2022-11-29T23:34:08.334Z,3.55
2022-11-29T23:36:37.269Z,3.56
2022-11-29T23:39:09.895Z,3.51
2022-11-29T23:41:36.896Z,3.63
2022-11-29T23:44:08.773Z,3.67
2022-11-29T23:46:40.592Z,3.80
2022-11-29T23:49:07.811Z,3.70
2022-11-29T23:51:36.433Z,3.55
2022-11-29T23:54:05.381Z,3.68
2022-11-29T23:56:36.987Z,3.78
2022-11-29T23:59:08.283Z,3.80
